sensor_id;sensor_type;location;lat;lon;timestamp;P1;durP1;ratioP1;P2;durP2;ratioP2
6523;SDS011;3295;38.928;-77.052;2023-04-29T00:01:35;0.90;;;0.90;;
6523;SDS011;3295;38.928;-77.052;2023-04-29T00:04:03;1.03;;;0.80;;
6523;SDS011;3295;38.928;-77.052;2023-04-29T00:06:30;1.30;;;0.97;;
6523;SDS011;3295;38.928;-77.052;2023-04-29T00:08:57;1.10;;;1.00;;
6523;SDS011;3295;38.928;-77.052;2023-04-29T00:11:24;1.80;;;1.10;;
6523;SDS011;3295;38.928;-77.052;2023-04-29T00:13:52;0.80;;;0.80;;
6523;SDS011;3295;38.928;-77.052;2023-04-29T00:16:19;0.90;;;0.90;;
6523;SDS011;3295;38.928;-77.052;2023-04-29T00:18:48;0.80;;;0.80;;
6523;SDS011;3295;38.928;-77.052;2023-04-29T00:21:15;2.03;;;0.80;;
6523;SDS011;3295;38.928;-77.052;2023-04-29T00:23:42;1.83;;;1.30;;
6523;SDS011;3295;38.928;-77.052;2023-04-29T00:26:10;1.13;;;0.90;;
6523;SDS011;3295;38.928;-77.052;2023-04-29T00:28:37;0.97;;;0.90;;
6523;SDS011;3295;38.928;-77.052;2023-04-29T00:31:04;1.20;;;0.90;;
6523;SDS011;3295;38.928;-77.052;2023-04-29T00:33:31;0.73;;;0.73;;
6523;SDS011;3295;38.928;-77.052;2023-04-29T00:36:00;1.00;;;0.90;;
6523;SDS011;3295;38.928;-77.052;2023-04-29T00:38:27;0.87;;;0.80;;
6523;SDS011;3295;38.928;-77.052;2023-04-29T00:40:55;0.80;;;0.80;;
6523;SDS011;3295;38.928;-77.052;2023-04-29T00:43:22;0.80;;;0.80;;
6523;SDS011;3295;38.928;-77.052;2023-04-29T00:45:49;0.80;;;0.80;;
6523;SDS011;3295;38.928;-77.052;2023-04-29T00:48:17;0.80;;;0.80;;
6523;SDS011;3295;38.928;-77.052;2023-04-29T00:50:44;0.70;;;0.70;;
6523;SDS011;3295;38.928;-77.052;2023-04-29T00:53:13;0.67;;;0.67;;
6523;SDS011;3295;38.928;-77.052;2023-04-29T00:55:40;1.50;;;1.00;;
6523;SDS011;3295;38.928;-77.052;2023-04-29T00:58:08;1.07;;;1.00;;
6523;SDS011;3295;38.928;-77.052;2023-04-29T01:00:36;2.47;;;0.80;;
6523;SDS011;3295;38.928;-77.052;2023-04-29T01:03:03;0.73;;;0.73;;
6523;SDS011;3295;38.928;-77.052;2023-04-29T01:05:31;0.93;;;0.93;;
6523;SDS011;3295;38.928;-77.052;2023-04-29T01:08:03;0.83;;;0.83;;
6523;SDS011;3295;38.928;-77.052;2023-04-29T01:10:38;0.73;;;0.73;;
6523;SDS011;3295;38.928;-77.052;2023-04-29T01:13:08;1.43;;;0.80;;
6523;SDS011;3295;38.928;-77.052;2023-04-29T01:15:39;1.37;;;0.93;;
6523;SDS011;3295;38.928;-77.052;2023-04-29T01:18:09;1.00;;;0.90;;
6523;SDS011;3295;38.928;-77.052;2023-04-29T01:20:37;1.50;;;1.10;;
6523;SDS011;3295;38.928;-77.052;2023-04-29T01:23:04;0.83;;;0.83;;
6523;SDS011;3295;38.928;-77.052;2023-04-29T01:25:33;0.83;;;0.83;;
6523;SDS011;3295;38.928;-77.052;2023-04-29T01:28:04;1.07;;;0.80;;
6523;SDS011;3295;38.928;-77.052;2023-04-29T01:30:34;0.80;;;0.80;;
6523;SDS011;3295;38.928;-77.052;2023-04-29T01:33:08;1.80;;;0.97;;
6523;SDS011;3295;38.928;-77.052;2023-04-29T01:35:40;1.30;;;1.03;;
6523;SDS011;3295;38.928;-77.052;2023-04-29T01:38:15;0.90;;;0.90;;
6523;SDS011;3295;38.928;-77.052;2023-04-29T01:40:46;1.13;;;0.80;;
6523;SDS011;3295;38.928;-77.052;2023-04-29T01:43:19;1.60;;;0.97;;
6523;SDS011;3295;38.928;-77.052;2023-04-29T01:45:49;0.70;;;0.70;;
6523;SDS011;3295;38.928;-77.052;2023-04-29T01:48:17;1.00;;;0.90;;
6523;SDS011;3295;38.928;-77.052;2023-04-29T01:50:45;1.77;;;1.00;;
6523;SDS011;3295;38.928;-77.052;2023-04-29T01:53:12;0.80;;;0.80;;
6523;SDS011;3295;38.928;-77.052;2023-04-29T01:55:39;0.80;;;0.80;;
6523;SDS011;3295;38.928;-77.052;2023-04-29T01:58:09;1.37;;;1.20;;
6523;SDS011;3295;38.928;-77.052;2023-04-29T02:00:36;1.00;;;0.90;;
6523;SDS011;3295;38.928;-77.052;2023-04-29T02:03:04;2.30;;;1.00;;
6523;SDS011;3295;38.928;-77.052;2023-04-29T02:05:31;0.80;;;0.80;;
6523;SDS011;3295;38.928;-77.052;2023-04-29T02:07:58;1.07;;;0.90;;
6523;SDS011;3295;38.928;-77.052;2023-04-29T02:10:25;1.00;;;0.90;;
6523;SDS011;3295;38.928;-77.052;2023-04-29T02:12:53;0.80;;;0.80;;
6523;SDS011;3295;38.928;-77.052;2023-04-29T02:15:22;0.93;;;0.90;;
6523;SDS011;3295;38.928;-77.052;2023-04-29T02:17:52;1.10;;;1.00;;
6523;SDS011;3295;38.928;-77.052;2023-04-29T02:20:19;0.80;;;0.80;;
6523;SDS011;3295;38.928;-77.052;2023-04-29T02:22:46;0.80;;;0.80;;
6523;SDS011;3295;38.928;-77.052;2023-04-29T02:25:13;0.80;;;0.80;;
6523;SDS011;3295;38.928;-77.052;2023-04-29T02:27:40;0.80;;;0.80;;
6523;SDS011;3295;38.928;-77.052;2023-04-29T02:30:08;2.47;;;1.00;;
6523;SDS011;3295;38.928;-77.052;2023-04-29T02:32:37;3.50;;;0.90;;
6523;SDS011;3295;38.928;-77.052;2023-04-29T02:35:04;0.87;;;0.87;;
6523;SDS011;3295;38.928;-77.052;2023-04-29T02:37:33;0.90;;;0.90;;
6523;SDS011;3295;38.928;-77.052;2023-04-29T02:40:00;0.70;;;0.70;;
6523;SDS011;3295;38.928;-77.052;2023-04-29T02:42:28;1.37;;;0.87;;
6523;SDS011;3295;38.928;-77.052;2023-04-29T02:44:55;0.77;;;0.70;;
6523;SDS011;3295;38.928;-77.052;2023-04-29T02:47:22;0.77;;;0.70;;
6523;SDS011;3295;38.928;-77.052;2023-04-29T02:49:51;0.90;;;0.90;;
6523;SDS011;3295;38.928;-77.052;2023-04-29T02:52:18;1.80;;;0.80;;
6523;SDS011;3295;38.928;-77.052;2023-04-29T02:54:45;0.80;;;0.80;;
6523;SDS011;3295;38.928;-77.052;2023-04-29T02:57:12;0.80;;;0.80;;
6523;SDS011;3295;38.928;-77.052;2023-04-29T02:59:40;0.87;;;0.87;;
6523;SDS011;3295;38.928;-77.052;2023-04-29T03:02:07;0.90;;;0.90;;
6523;SDS011;3295;38.928;-77.052;2023-04-29T03:04:34;0.87;;;0.87;;
6523;SDS011;3295;38.928;-77.052;2023-04-29T03:07:03;1.00;;;0.93;;
6523;SDS011;3295;38.928;-77.052;2023-04-29T03:09:30;1.00;;;0.90;;
6523;SDS011;3295;38.928;-77.052;2023-04-29T03:11:57;1.10;;;0.83;;
6523;SDS011;3295;38.928;-77.052;2023-04-29T03:14:25;1.27;;;1.03;;
6523;SDS011;3295;38.928;-77.052;2023-04-29T03:16:52;0.80;;;0.80;;
6523;SDS011;3295;38.928;-77.052;2023-04-29T03:19:20;1.63;;;1.00;;
6523;SDS011;3295;38.928;-77.052;2023-04-29T03:21:47;3.30;;;0.87;;
6523;SDS011;3295;38.928;-77.052;2023-04-29T03:24:16;0.80;;;0.80;;
6523;SDS011;3295;38.928;-77.052;2023-04-29T03:26:43;0.70;;;0.70;;
6523;SDS011;3295;38.928;-77.052;2023-04-29T03:29:10;0.73;;;0.73;;
6523;SDS011;3295;38.928;-77.052;2023-04-29T03:31:38;0.80;;;0.80;;
6523;SDS011;3295;38.928;-77.052;2023-04-29T03:34:05;0.90;;;0.70;;
6523;SDS011;3295;38.928;-77.052;2023-04-29T03:36:32;1.03;;;0.80;;
6523;SDS011;3295;38.928;-77.052;2023-04-29T03:38:59;1.13;;;0.73;;
6523;SDS011;3295;38.928;-77.052;2023-04-29T03:41:28;0.90;;;0.90;;
6523;SDS011;3295;38.928;-77.052;2023-04-29T03:43:55;1.00;;;0.80;;
6523;SDS011;3295;38.928;-77.052;2023-04-29T03:46:25;0.93;;;0.90;;
6523;SDS011;3295;38.928;-77.052;2023-04-29T03:48:52;0.70;;;0.70;;
6523;SDS011;3295;38.928;-77.052;2023-04-29T03:51:20;0.80;;;0.80;;
6523;SDS011;3295;38.928;-77.052;2023-04-29T03:53:47;0.87;;;0.87;;
6523;SDS011;3295;38.928;-77.052;2023-04-29T03:56:15;1.30;;;0.83;;
6523;SDS011;3295;38.928;-77.052;2023-04-29T03:58:44;0.83;;;0.83;;
6523;SDS011;3295;38.928;-77.052;2023-04-29T04:01:11;0.70;;;0.70;;
6523;SDS011;3295;38.928;-77.052;2023-04-29T04:03:38;0.70;;;0.70;;
6523;SDS011;3295;38.928;-77.052;2023-04-29T04:06:07;1.13;;;1.00;;
6523;SDS011;3295;38.928;-77.052;2023-04-29T04:08:34;0.87;;;0.87;;
6523;SDS011;3295;38.928;-77.052;2023-04-29T04:11:02;0.77;;;0.77;;
6523;SDS011;3295;38.928;-77.052;2023-04-29T04:13:29;0.60;;;0.60;;
6523;SDS011;3295;38.928;-77.052;2023-04-29T04:15:58;0.80;;;0.80;;
6523;SDS011;3295;38.928;-77.052;2023-04-29T04:18:25;1.57;;;0.90;;
6523;SDS011;3295;38.928;-77.052;2023-04-29T04:20:52;0.77;;;0.77;;
6523;SDS011;3295;38.928;-77.052;2023-04-29T04:23:19;1.20;;;0.90;;
6523;SDS011;3295;38.928;-77.052;2023-04-29T04:25:46;0.90;;;0.90;;
6523;SDS011;3295;38.928;-77.052;2023-04-29T04:28:13;0.90;;;0.90;;
6523;SDS011;3295;38.928;-77.052;2023-04-29T04:30:41;0.90;;;0.90;;
6523;SDS011;3295;38.928;-77.052;2023-04-29T04:33:10;0.80;;;0.80;;
6523;SDS011;3295;38.928;-77.052;2023-04-29T04:35:38;0.90;;;0.90;;
6523;SDS011;3295;38.928;-77.052;2023-04-29T04:38:05;1.13;;;1.00;;
6523;SDS011;3295;38.928;-77.052;2023-04-29T04:40:32;0.90;;;0.90;;
6523;SDS011;3295;38.928;-77.052;2023-04-29T04:42:59;1.10;;;0.90;;
6523;SDS011;3295;38.928;-77.052;2023-04-29T04:45:27;0.80;;;0.80;;
6523;SDS011;3295;38.928;-77.052;2023-04-29T04:47:55;0.90;;;0.90;;
6523;SDS011;3295;38.928;-77.052;2023-04-29T04:50:26;0.90;;;0.90;;
6523;SDS011;3295;38.928;-77.052;2023-04-29T04:52:53;1.20;;;0.90;;
6523;SDS011;3295;38.928;-77.052;2023-04-29T04:55:20;2.43;;;1.10;;
6523;SDS011;3295;38.928;-77.052;2023-04-29T04:57:47;0.90;;;0.90;;
6523;SDS011;3295;38.928;-77.052;2023-04-29T05:00:15;1.10;;;0.97;;
6523;SDS011;3295;38.928;-77.052;2023-04-29T05:02:42;2.23;;;0.90;;
6523;SDS011;3295;38.928;-77.052;2023-04-29T05:05:09;1.07;;;1.00;;
6523;SDS011;3295;38.928;-77.052;2023-04-29T05:07:38;1.30;;;1.10;;
6523;SDS011;3295;38.928;-77.052;2023-04-29T05:10:06;0.90;;;0.90;;
6523;SDS011;3295;38.928;-77.052;2023-04-29T05:12:33;1.40;;;1.10;;
6523;SDS011;3295;38.928;-77.052;2023-04-29T05:15:01;1.10;;;1.00;;
6523;SDS011;3295;38.928;-77.052;2023-04-29T05:17:28;1.00;;;0.90;;
6523;SDS011;3295;38.928;-77.052;2023-04-29T05:19:55;0.90;;;0.90;;
6523;SDS011;3295;38.928;-77.052;2023-04-29T05:22:22;1.20;;;1.00;;
6523;SDS011;3295;38.928;-77.052;2023-04-29T05:24:51;1.60;;;1.30;;
6523;SDS011;3295;38.928;-77.052;2023-04-29T05:27:19;1.17;;;1.07;;
6523;SDS011;3295;38.928;-77.052;2023-04-29T05:29:46;1.00;;;0.90;;
6523;SDS011;3295;38.928;-77.052;2023-04-29T05:32:13;0.90;;;0.90;;
6523;SDS011;3295;38.928;-77.052;2023-04-29T05:34:41;1.03;;;0.93;;
6523;SDS011;3295;38.928;-77.052;2023-04-29T05:37:09;0.93;;;0.93;;
6523;SDS011;3295;38.928;-77.052;2023-04-29T05:39:36;0.93;;;0.87;;
6523;SDS011;3295;38.928;-77.052;2023-04-29T05:42:05;0.90;;;0.90;;
6523;SDS011;3295;38.928;-77.052;2023-04-29T05:44:32;0.90;;;0.90;;
6523;SDS011;3295;38.928;-77.052;2023-04-29T05:46:59;0.90;;;0.90;;
6523;SDS011;3295;38.928;-77.052;2023-04-29T05:49:26;0.80;;;0.80;;
6523;SDS011;3295;38.928;-77.052;2023-04-29T05:51:53;1.50;;;0.80;;
6523;SDS011;3295;38.928;-77.052;2023-04-29T05:54:21;0.90;;;0.90;;
6523;SDS011;3295;38.928;-77.052;2023-04-29T05:56:48;0.80;;;0.80;;
6523;SDS011;3295;38.928;-77.052;2023-04-29T05:59:16;0.90;;;0.90;;
6523;SDS011;3295;38.928;-77.052;2023-04-29T06:01:44;0.90;;;0.90;;
6523;SDS011;3295;38.928;-77.052;2023-04-29T06:04:11;1.67;;;0.90;;
6523;SDS011;3295;38.928;-77.052;2023-04-29T06:06:38;0.80;;;0.80;;
6523;SDS011;3295;38.928;-77.052;2023-04-29T06:09:06;0.80;;;0.80;;
6523;SDS011;3295;38.928;-77.052;2023-04-29T06:11:33;0.80;;;0.80;;
6523;SDS011;3295;38.928;-77.052;2023-04-29T06:14:00;0.80;;;0.80;;
6523;SDS011;3295;38.928;-77.052;2023-04-29T06:16:29;2.90;;;0.77;;
6523;SDS011;3295;38.928;-77.052;2023-04-29T06:18:57;0.70;;;0.70;;
6523;SDS011;3295;38.928;-77.052;2023-04-29T06:21:24;0.60;;;0.60;;
6523;SDS011;3295;38.928;-77.052;2023-04-29T06:23:52;0.70;;;0.70;;
6523;SDS011;3295;38.928;-77.052;2023-04-29T06:26:19;0.70;;;0.70;;
6523;SDS011;3295;38.928;-77.052;2023-04-29T06:28:46;0.70;;;0.70;;
6523;SDS011;3295;38.928;-77.052;2023-04-29T06:31:14;0.90;;;0.90;;
6523;SDS011;3295;38.928;-77.052;2023-04-29T06:33:43;0.80;;;0.80;;
6523;SDS011;3295;38.928;-77.052;2023-04-29T06:36:11;0.90;;;0.80;;
6523;SDS011;3295;38.928;-77.052;2023-04-29T06:38:38;0.80;;;0.80;;
6523;SDS011;3295;38.928;-77.052;2023-04-29T06:41:05;0.80;;;0.80;;
6523;SDS011;3295;38.928;-77.052;2023-04-29T06:43:32;0.70;;;0.70;;
6523;SDS011;3295;38.928;-77.052;2023-04-29T06:45:59;0.80;;;0.80;;
6523;SDS011;3295;38.928;-77.052;2023-04-29T06:48:26;1.53;;;0.70;;
6523;SDS011;3295;38.928;-77.052;2023-04-29T06:50:56;0.80;;;0.80;;
6523;SDS011;3295;38.928;-77.052;2023-04-29T06:53:24;0.80;;;0.80;;
6523;SDS011;3295;38.928;-77.052;2023-04-29T06:55:51;0.80;;;0.80;;
6523;SDS011;3295;38.928;-77.052;2023-04-29T06:58:18;1.70;;;0.90;;
6523;SDS011;3295;38.928;-77.052;2023-04-29T07:00:46;0.83;;;0.80;;
6523;SDS011;3295;38.928;-77.052;2023-04-29T07:03:14;0.70;;;0.70;;
6523;SDS011;3295;38.928;-77.052;2023-04-29T07:05:42;0.80;;;0.80;;
6523;SDS011;3295;38.928;-77.052;2023-04-29T07:08:11;0.80;;;0.80;;
6523;SDS011;3295;38.928;-77.052;2023-04-29T07:10:39;0.77;;;0.77;;
6523;SDS011;3295;38.928;-77.052;2023-04-29T07:13:06;0.90;;;0.90;;
6523;SDS011;3295;38.928;-77.052;2023-04-29T07:15:33;0.80;;;0.80;;
6523;SDS011;3295;38.928;-77.052;2023-04-29T07:18:02;0.90;;;0.90;;
6523;SDS011;3295;38.928;-77.052;2023-04-29T07:20:29;0.80;;;0.80;;
6523;SDS011;3295;38.928;-77.052;2023-04-29T07:22:56;1.10;;;1.00;;
6523;SDS011;3295;38.928;-77.052;2023-04-29T07:25:25;0.90;;;0.90;;
6523;SDS011;3295;38.928;-77.052;2023-04-29T07:27:53;1.80;;;1.37;;
6523;SDS011;3295;38.928;-77.052;2023-04-29T07:30:20;0.80;;;0.80;;
6523;SDS011;3295;38.928;-77.052;2023-04-29T07:32:48;0.80;;;0.80;;
6523;SDS011;3295;38.928;-77.052;2023-04-29T07:35:15;0.87;;;0.80;;
6523;SDS011;3295;38.928;-77.052;2023-04-29T07:37:42;1.53;;;0.90;;
6523;SDS011;3295;38.928;-77.052;2023-04-29T07:40:10;0.80;;;0.80;;
6523;SDS011;3295;38.928;-77.052;2023-04-29T07:42:39;0.80;;;0.80;;
6523;SDS011;3295;38.928;-77.052;2023-04-29T07:45:06;0.70;;;0.70;;
6523;SDS011;3295;38.928;-77.052;2023-04-29T07:47:34;0.80;;;0.80;;
6523;SDS011;3295;38.928;-77.052;2023-04-29T07:50:01;0.87;;;0.80;;
6523;SDS011;3295;38.928;-77.052;2023-04-29T07:52:29;1.13;;;0.90;;
6523;SDS011;3295;38.928;-77.052;2023-04-29T07:54:56;0.80;;;0.80;;
6523;SDS011;3295;38.928;-77.052;2023-04-29T07:57:24;0.73;;;0.73;;
6523;SDS011;3295;38.928;-77.052;2023-04-29T07:59:53;0.80;;;0.80;;
6523;SDS011;3295;38.928;-77.052;2023-04-29T08:02:20;1.77;;;0.90;;
6523;SDS011;3295;38.928;-77.052;2023-04-29T08:04:47;0.80;;;0.80;;
6523;SDS011;3295;38.928;-77.052;2023-04-29T08:07:15;0.83;;;0.83;;
6523;SDS011;3295;38.928;-77.052;2023-04-29T08:09:42;1.00;;;0.90;;
6523;SDS011;3295;38.928;-77.052;2023-04-29T08:12:09;0.83;;;0.80;;
6523;SDS011;3295;38.928;-77.052;2023-04-29T08:14:36;1.00;;;0.90;;
6523;SDS011;3295;38.928;-77.052;2023-04-29T08:17:05;0.80;;;0.80;;
6523;SDS011;3295;38.928;-77.052;2023-04-29T08:19:32;0.80;;;0.80;;
6523;SDS011;3295;38.928;-77.052;2023-04-29T08:22:00;0.90;;;0.90;;
6523;SDS011;3295;38.928;-77.052;2023-04-29T08:24:28;0.80;;;0.80;;
6523;SDS011;3295;38.928;-77.052;2023-04-29T08:26:57;1.03;;;0.97;;
6523;SDS011;3295;38.928;-77.052;2023-04-29T08:29:25;0.73;;;0.73;;
6523;SDS011;3295;38.928;-77.052;2023-04-29T08:31:52;0.90;;;0.90;;
6523;SDS011;3295;38.928;-77.052;2023-04-29T08:34:21;2.70;;;1.00;;
6523;SDS011;3295;38.928;-77.052;2023-04-29T08:36:48;0.80;;;0.80;;
6523;SDS011;3295;38.928;-77.052;2023-04-29T08:39:16;0.90;;;0.90;;
6523;SDS011;3295;38.928;-77.052;2023-04-29T08:41:43;1.17;;;1.03;;
6523;SDS011;3295;38.928;-77.052;2023-04-29T08:44:15;1.20;;;1.10;;
6523;SDS011;3295;38.928;-77.052;2023-04-29T08:46:42;0.80;;;0.80;;
6523;SDS011;3295;38.928;-77.052;2023-04-29T08:49:10;1.00;;;0.90;;
6523;SDS011;3295;38.928;-77.052;2023-04-29T08:51:39;1.23;;;1.10;;
6523;SDS011;3295;38.928;-77.052;2023-04-29T08:54:06;1.10;;;1.00;;
6523;SDS011;3295;38.928;-77.052;2023-04-29T08:56:33;1.30;;;1.20;;
6523;SDS011;3295;38.928;-77.052;2023-04-29T08:59:01;2.53;;;1.20;;
6523;SDS011;3295;38.928;-77.052;2023-04-29T09:01:28;0.90;;;0.90;;
6523;SDS011;3295;38.928;-77.052;2023-04-29T09:04:00;2.30;;;1.00;;
6523;SDS011;3295;38.928;-77.052;2023-04-29T09:06:29;1.27;;;1.07;;
6523;SDS011;3295;38.928;-77.052;2023-04-29T09:08:59;1.20;;;1.10;;
6523;SDS011;3295;38.928;-77.052;2023-04-29T09:11:28;1.23;;;1.13;;
6523;SDS011;3295;38.928;-77.052;2023-04-29T09:13:57;1.57;;;1.03;;
6523;SDS011;3295;38.928;-77.052;2023-04-29T09:16:25;1.30;;;1.07;;
6523;SDS011;3295;38.928;-77.052;2023-04-29T09:18:52;1.40;;;1.20;;
6523;SDS011;3295;38.928;-77.052;2023-04-29T09:21:19;1.10;;;1.00;;
6523;SDS011;3295;38.928;-77.052;2023-04-29T09:23:48;1.30;;;1.20;;
6523;SDS011;3295;38.928;-77.052;2023-04-29T09:26:17;1.40;;;1.10;;
6523;SDS011;3295;38.928;-77.052;2023-04-29T09:28:45;1.37;;;1.20;;
6523;SDS011;3295;38.928;-77.052;2023-04-29T09:31:12;1.13;;;1.03;;
6523;SDS011;3295;38.928;-77.052;2023-04-29T09:33:49;1.03;;;1.03;;
6523;SDS011;3295;38.928;-77.052;2023-04-29T09:38:58;1.77;;;1.00;;
6523;SDS011;3295;38.928;-77.052;2023-04-29T09:41:27;1.30;;;1.20;;
6523;SDS011;3295;38.928;-77.052;2023-04-29T09:44:01;1.20;;;1.10;;
6523;SDS011;3295;38.928;-77.052;2023-04-29T09:46:30;1.43;;;1.10;;
6523;SDS011;3295;38.928;-77.052;2023-04-29T09:48:58;1.57;;;1.37;;
6523;SDS011;3295;38.928;-77.052;2023-04-29T09:51:25;2.33;;;0.97;;
6523;SDS011;3295;38.928;-77.052;2023-04-29T09:53:52;1.07;;;0.97;;
6523;SDS011;3295;38.928;-77.052;2023-04-29T09:56:19;1.40;;;1.20;;
6523;SDS011;3295;38.928;-77.052;2023-04-29T09:58:48;1.37;;;1.20;;
6523;SDS011;3295;38.928;-77.052;2023-04-29T10:01:16;1.60;;;1.30;;
6523;SDS011;3295;38.928;-77.052;2023-04-29T10:03:45;1.50;;;1.30;;
6523;SDS011;3295;38.928;-77.052;2023-04-29T10:06:15;1.30;;;1.20;;
6523;SDS011;3295;38.928;-77.052;2023-04-29T10:08:43;1.20;;;1.10;;
6523;SDS011;3295;38.928;-77.052;2023-04-29T10:11:12;1.63;;;1.20;;
6523;SDS011;3295;38.928;-77.052;2023-04-29T10:13:40;1.43;;;1.20;;
6523;SDS011;3295;38.928;-77.052;2023-04-29T10:16:12;1.23;;;1.13;;
6523;SDS011;3295;38.928;-77.052;2023-04-29T10:18:43;2.00;;;1.30;;
6523;SDS011;3295;38.928;-77.052;2023-04-29T10:21:11;1.30;;;1.10;;
6523;SDS011;3295;38.928;-77.052;2023-04-29T10:23:39;1.07;;;1.00;;
6523;SDS011;3295;38.928;-77.052;2023-04-29T10:26:09;1.40;;;1.07;;
6523;SDS011;3295;38.928;-77.052;2023-04-29T10:28:38;1.30;;;1.10;;
6523;SDS011;3295;38.928;-77.052;2023-04-29T10:31:06;1.30;;;1.10;;
6523;SDS011;3295;38.928;-77.052;2023-04-29T10:33:35;1.40;;;1.30;;
6523;SDS011;3295;38.928;-77.052;2023-04-29T10:36:03;1.50;;;1.13;;
6523;SDS011;3295;38.928;-77.052;2023-04-29T10:38:31;1.20;;;1.00;;
6523;SDS011;3295;38.928;-77.052;2023-04-29T10:41:01;1.30;;;1.10;;
6523;SDS011;3295;38.928;-77.052;2023-04-29T10:43:29;1.10;;;1.00;;
6523;SDS011;3295;38.928;-77.052;2023-04-29T10:48:44;1.33;;;1.20;;
6523;SDS011;3295;38.928;-77.052;2023-04-29T10:51:11;0.93;;;0.93;;
6523;SDS011;3295;38.928;-77.052;2023-04-29T10:56:20;2.70;;;1.20;;
6523;SDS011;3295;38.928;-77.052;2023-04-29T10:58:47;1.00;;;1.00;;
6523;SDS011;3295;38.928;-77.052;2023-04-29T11:01:15;0.90;;;0.90;;
6523;SDS011;3295;38.928;-77.052;2023-04-29T11:06:38;0.87;;;0.87;;
6523;SDS011;3295;38.928;-77.052;2023-04-29T11:09:09;1.97;;;1.00;;
6523;SDS011;3295;38.928;-77.052;2023-04-29T11:11:41;1.10;;;1.00;;
6523;SDS011;3295;38.928;-77.052;2023-04-29T11:14:08;1.00;;;1.00;;
6523;SDS011;3295;38.928;-77.052;2023-04-29T11:16:36;0.80;;;0.80;;
6523;SDS011;3295;38.928;-77.052;2023-04-29T11:19:04;0.80;;;0.80;;
6523;SDS011;3295;38.928;-77.052;2023-04-29T11:21:32;1.07;;;0.97;;
6523;SDS011;3295;38.928;-77.052;2023-04-29T11:24:01;1.00;;;0.90;;
6523;SDS011;3295;38.928;-77.052;2023-04-29T11:26:30;1.83;;;0.90;;
6523;SDS011;3295;38.928;-77.052;2023-04-29T11:28:58;1.70;;;0.80;;
6523;SDS011;3295;38.928;-77.052;2023-04-29T11:31:26;0.83;;;0.83;;
6523;SDS011;3295;38.928;-77.052;2023-04-29T11:33:54;0.90;;;0.90;;
6523;SDS011;3295;38.928;-77.052;2023-04-29T11:36:21;0.90;;;0.90;;
6523;SDS011;3295;38.928;-77.052;2023-04-29T11:38:49;1.60;;;0.90;;
6523;SDS011;3295;38.928;-77.052;2023-04-29T11:41:17;0.90;;;0.90;;
6523;SDS011;3295;38.928;-77.052;2023-04-29T11:43:46;0.90;;;0.90;;
6523;SDS011;3295;38.928;-77.052;2023-04-29T11:46:13;1.00;;;1.00;;
6523;SDS011;3295;38.928;-77.052;2023-04-29T11:48:47;1.00;;;0.90;;
6523;SDS011;3295;38.928;-77.052;2023-04-29T11:51:14;1.33;;;1.00;;
6523;SDS011;3295;38.928;-77.052;2023-04-29T11:53:42;1.17;;;1.00;;
6523;SDS011;3295;38.928;-77.052;2023-04-29T11:56:09;1.23;;;1.00;;
6523;SDS011;3295;38.928;-77.052;2023-04-29T11:58:38;0.77;;;0.77;;
6523;SDS011;3295;38.928;-77.052;2023-04-29T12:01:05;1.10;;;1.00;;
6523;SDS011;3295;38.928;-77.052;2023-04-29T12:03:32;1.43;;;0.83;;
6523;SDS011;3295;38.928;-77.052;2023-04-29T12:06:01;1.10;;;1.00;;
6523;SDS011;3295;38.928;-77.052;2023-04-29T12:08:28;0.90;;;0.90;;
6523;SDS011;3295;38.928;-77.052;2023-04-29T12:10:58;1.33;;;0.93;;
6523;SDS011;3295;38.928;-77.052;2023-04-29T12:13:26;0.90;;;0.90;;
6523;SDS011;3295;38.928;-77.052;2023-04-29T12:15:56;0.97;;;0.87;;
6523;SDS011;3295;38.928;-77.052;2023-04-29T12:18:23;1.03;;;0.83;;
6523;SDS011;3295;38.928;-77.052;2023-04-29T12:20:52;0.93;;;0.90;;
6523;SDS011;3295;38.928;-77.052;2023-04-29T12:23:20;1.27;;;0.80;;
6523;SDS011;3295;38.928;-77.052;2023-04-29T12:25:48;0.90;;;0.90;;
6523;SDS011;3295;38.928;-77.052;2023-04-29T12:28:16;1.60;;;1.10;;
6523;SDS011;3295;38.928;-77.052;2023-04-29T12:30:43;1.10;;;1.00;;
6523;SDS011;3295;38.928;-77.052;2023-04-29T12:33:17;0.90;;;0.83;;
6523;SDS011;3295;38.928;-77.052;2023-04-29T12:35:44;1.93;;;0.80;;
6523;SDS011;3295;38.928;-77.052;2023-04-29T12:38:14;1.20;;;1.03;;
6523;SDS011;3295;38.928;-77.052;2023-04-29T12:40:43;0.90;;;0.90;;
6523;SDS011;3295;38.928;-77.052;2023-04-29T12:43:10;1.10;;;1.00;;
6523;SDS011;3295;38.928;-77.052;2023-04-29T12:45:37;1.37;;;1.00;;
6523;SDS011;3295;38.928;-77.052;2023-04-29T12:48:05;3.10;;;1.40;;
6523;SDS011;3295;38.928;-77.052;2023-04-29T12:50:34;1.50;;;1.10;;
6523;SDS011;3295;38.928;-77.052;2023-04-29T12:53:02;1.20;;;1.10;;
6523;SDS011;3295;38.928;-77.052;2023-04-29T12:55:30;1.10;;;1.00;;
6523;SDS011;3295;38.928;-77.052;2023-04-29T12:57:58;2.43;;;1.10;;
6523;SDS011;3295;38.928;-77.052;2023-04-29T13:00:25;1.17;;;1.07;;
6523;SDS011;3295;38.928;-77.052;2023-04-29T13:02:53;1.10;;;1.00;;
6523;SDS011;3295;38.928;-77.052;2023-04-29T13:05:20;1.23;;;1.03;;
6523;SDS011;3295;38.928;-77.052;2023-04-29T13:07:49;1.70;;;1.10;;
6523;SDS011;3295;38.928;-77.052;2023-04-29T13:10:16;1.53;;;1.10;;
6523;SDS011;3295;38.928;-77.052;2023-04-29T13:12:44;1.37;;;1.17;;
6523;SDS011;3295;38.928;-77.052;2023-04-29T13:15:11;1.23;;;1.13;;
6523;SDS011;3295;38.928;-77.052;2023-04-29T13:17:39;1.33;;;1.20;;
6523;SDS011;3295;38.928;-77.052;2023-04-29T13:20:06;1.27;;;1.17;;
6523;SDS011;3295;38.928;-77.052;2023-04-29T13:22:34;3.60;;;1.20;;
6523;SDS011;3295;38.928;-77.052;2023-04-29T13:25:03;1.60;;;1.40;;
6523;SDS011;3295;38.928;-77.052;2023-04-29T13:27:31;4.00;;;2.27;;
6523;SDS011;3295;38.928;-77.052;2023-04-29T13:29:58;2.00;;;1.30;;
6523;SDS011;3295;38.928;-77.052;2023-04-29T13:32:26;1.60;;;1.30;;
6523;SDS011;3295;38.928;-77.052;2023-04-29T13:34:53;1.40;;;1.30;;
6523;SDS011;3295;38.928;-77.052;2023-04-29T13:37:20;1.70;;;1.40;;
6523;SDS011;3295;38.928;-77.052;2023-04-29T13:39:47;1.50;;;1.13;;
6523;SDS011;3295;38.928;-77.052;2023-04-29T13:42:16;1.20;;;1.10;;
6523;SDS011;3295;38.928;-77.052;2023-04-29T13:44:43;1.73;;;1.40;;
6523;SDS011;3295;38.928;-77.052;2023-04-29T13:47:10;1.77;;;1.23;;
6523;SDS011;3295;38.928;-77.052;2023-04-29T13:49:38;1.90;;;1.10;;
6523;SDS011;3295;38.928;-77.052;2023-04-29T13:52:05;1.83;;;1.40;;
6523;SDS011;3295;38.928;-77.052;2023-04-29T13:54:33;1.70;;;1.30;;
6523;SDS011;3295;38.928;-77.052;2023-04-29T13:57:00;2.47;;;1.30;;
6523;SDS011;3295;38.928;-77.052;2023-04-29T13:59:30;1.90;;;1.53;;
6523;SDS011;3295;38.928;-77.052;2023-04-29T14:01:58;1.50;;;1.40;;
6523;SDS011;3295;38.928;-77.052;2023-04-29T14:04:25;1.67;;;1.40;;
6523;SDS011;3295;38.928;-77.052;2023-04-29T14:06:53;1.50;;;1.40;;
6523;SDS011;3295;38.928;-77.052;2023-04-29T14:09:20;1.77;;;1.60;;
6523;SDS011;3295;38.928;-77.052;2023-04-29T14:11:47;1.50;;;1.40;;
6523;SDS011;3295;38.928;-77.052;2023-04-29T14:14:15;1.63;;;1.30;;
6523;SDS011;3295;38.928;-77.052;2023-04-29T14:16:44;3.33;;;1.60;;
6523;SDS011;3295;38.928;-77.052;2023-04-29T14:19:11;2.23;;;1.50;;
6523;SDS011;3295;38.928;-77.052;2023-04-29T14:21:38;2.10;;;1.50;;
6523;SDS011;3295;38.928;-77.052;2023-04-29T14:24:05;1.93;;;1.60;;
6523;SDS011;3295;38.928;-77.052;2023-04-29T14:26:33;2.27;;;1.40;;
6523;SDS011;3295;38.928;-77.052;2023-04-29T14:29:01;2.40;;;1.70;;
6523;SDS011;3295;38.928;-77.052;2023-04-29T14:31:28;2.30;;;1.63;;
6523;SDS011;3295;38.928;-77.052;2023-04-29T14:33:57;2.83;;;1.80;;
6523;SDS011;3295;38.928;-77.052;2023-04-29T14:36:25;2.47;;;1.60;;
6523;SDS011;3295;38.928;-77.052;2023-04-29T14:38:52;2.73;;;1.87;;
6523;SDS011;3295;38.928;-77.052;2023-04-29T14:41:19;2.27;;;1.70;;
6523;SDS011;3295;38.928;-77.052;2023-04-29T14:43:47;2.00;;;1.47;;
6523;SDS011;3295;38.928;-77.052;2023-04-29T14:46:14;2.90;;;1.87;;
6523;SDS011;3295;38.928;-77.052;2023-04-29T14:48:41;2.20;;;1.70;;
6523;SDS011;3295;38.928;-77.052;2023-04-29T14:51:10;2.50;;;1.70;;
6523;SDS011;3295;38.928;-77.052;2023-04-29T14:53:37;3.20;;;1.93;;
6523;SDS011;3295;38.928;-77.052;2023-04-29T14:56:04;3.53;;;2.23;;
6523;SDS011;3295;38.928;-77.052;2023-04-29T14:58:32;3.67;;;2.23;;
6523;SDS011;3295;38.928;-77.052;2023-04-29T15:00:59;4.37;;;2.60;;
6523;SDS011;3295;38.928;-77.052;2023-04-29T15:03:26;3.43;;;2.27;;